createdAt,value
2022-08-22T00:01:33.133Z,21.60
2022-08-22T00:02:47.466Z,23.56
2022-08-22T00:02:58.277Z,22.67
2022-08-22T00:02:59.073Z,21.77
2022-08-22T00:02:59.391Z,21.65
2022-08-22T00:03:15.359Z,21.81
2022-08-22T00:04:14.629Z,21.60
2022-08-22T00:06:56.665Z,21.61
2022-08-22T00:09:41.542Z,21.62
2022-08-22T00:12:22.876Z,21.61
2022-08-22T00:15:05.069Z,21.59
2022-08-22T00:17:48.415Z,21.56
2022-08-22T00:20:26.109Z,21.55
2022-08-22T00:23:11.710Z,21.55
2022-08-22T00:25:51.572Z,21.55
2022-08-22T00:28:26.767Z,21.56
2022-08-22T00:31:03.589Z,21.58
2022-08-22T00:33:38.106Z,21.59
2022-08-22T00:36:20.546Z,21.56
2022-08-22T00:38:59.959Z,21.55
2022-08-22T00:41:50.955Z,21.52
2022-08-22T00:44:56.040Z,21.49
2022-08-22T00:47:52.947Z,21.45
2022-08-22T00:50:55.722Z,21.40
2022-08-22T00:53:44.503Z,21.34
2022-08-22T00:56:37.732Z,21.28
2022-08-22T00:59:35.863Z,21.22
2022-08-22T01:02:25.479Z,21.16
2022-08-22T01:05:12.136Z,21.11
2022-08-22T01:08:13.531Z,21.07
2022-08-22T01:10:59.412Z,21.01
2022-08-22T01:14:06.446Z,20.95
2022-08-22T01:17:00.813Z,20.91
2022-08-22T01:20:10.668Z,20.88
2022-08-22T01:23:19.393Z,20.87
2022-08-22T01:26:38.886Z,20.85
2022-08-22T01:29:39.321Z,20.84
2022-08-22T01:32:46.083Z,20.83
2022-08-22T01:35:38.249Z,20.84
2022-08-22T01:38:27.158Z,20.84
2022-08-22T01:41:38.786Z,20.80
2022-08-22T01:44:39.366Z,20.76
2022-08-22T01:47:15.912Z,20.72
2022-08-22T01:49:55.392Z,20.72
2022-08-22T01:52:45.813Z,20.72
2022-08-22T01:55:33.644Z,20.74
2022-08-22T01:58:21.280Z,20.75
2022-08-22T02:01:08.438Z,20.77
2022-08-22T02:03:53.578Z,20.79
2022-08-22T02:06:34.039Z,20.83
2022-08-22T02:09:12.078Z,20.84
2022-08-22T02:11:49.753Z,20.81
2022-08-22T02:14:37.733Z,20.77
2022-08-22T02:17:21.387Z,20.76
2022-08-22T02:20:00.153Z,20.76
2022-08-22T02:22:44.645Z,20.77
2022-08-22T02:25:22.762Z,20.77
2022-08-22T02:28:00.070Z,20.76
2022-08-22T02:30:48.991Z,20.73
2022-08-22T02:33:34.100Z,20.70
2022-08-22T02:36:16.737Z,20.63
2022-08-22T02:39:00.489Z,20.58
2022-08-22T02:41:44.971Z,20.56
2022-08-22T02:44:22.400Z,20.54
2022-08-22T02:47:02.764Z,20.49
2022-08-22T02:49:47.170Z,20.47
2022-08-22T02:52:24.465Z,20.48
2022-08-22T02:55:03.656Z,20.50
2022-08-22T02:57:41.778Z,20.54
2022-08-22T03:00:33.050Z,20.57
2022-08-22T03:03:17.046Z,20.57
2022-08-22T03:06:02.114Z,20.56
2022-08-22T03:08:38.009Z,20.53
2022-08-22T03:11:22.932Z,20.50
2022-08-22T03:14:05.008Z,20.47
2022-08-22T03:16:45.958Z,20.48
2022-08-22T03:19:26.317Z,20.50
2022-08-22T03:22:02.393Z,20.53
2022-08-22T03:24:40.427Z,20.56
2022-08-22T03:27:32.278Z,20.56
2022-08-22T03:30:11.901Z,20.54
2022-08-22T03:32:59.737Z,20.53
2022-08-22T03:35:56.053Z,20.55
2022-08-22T03:38:44.682Z,20.54
2022-08-22T03:41:40.307Z,20.45
2022-08-22T03:44:49.099Z,20.39
2022-08-22T03:47:49.708Z,20.35
2022-08-22T03:50:58.718Z,20.37
2022-08-22T03:53:51.695Z,20.37
2022-08-22T03:57:00.265Z,20.38
2022-08-22T04:00:00.615Z,20.40
2022-08-22T04:03:00.494Z,20.41
2022-08-22T04:05:55.676Z,20.42
2022-08-22T04:08:43.981Z,20.46
2022-08-22T04:11:41.517Z,20.49
2022-08-22T04:14:34.269Z,20.50
2022-08-22T04:17:45.504Z,20.50
2022-08-22T04:20:52.614Z,20.50
2022-08-22T04:23:50.394Z,20.53
2022-08-22T04:26:30.607Z,20.61
2022-08-22T04:29:09.208Z,20.71
2022-08-22T04:31:48.752Z,20.85
2022-08-22T04:34:28.194Z,21.03
2022-08-22T04:37:04.975Z,21.23
2022-08-22T04:39:46.825Z,21.51
2022-08-22T04:42:33.056Z,22.03
2022-08-22T04:45:11.178Z,22.72
2022-08-22T04:47:47.150Z,23.37
2022-08-22T04:50:34.005Z,24.14
2022-08-22T04:53:23.563Z,24.90
2022-08-22T04:56:07.664Z,25.68
2022-08-22T04:58:56.770Z,26.40
2022-08-22T05:01:46.870Z,27.15
2022-08-22T05:04:24.173Z,27.84
2022-08-22T05:06:59.976Z,28.38
2022-08-22T05:09:37.564Z,28.94
2022-08-22T05:12:14.963Z,29.54
2022-08-22T05:14:50.178Z,30.09
2022-08-22T05:17:30.311Z,30.57
2022-08-22T05:20:08.048Z,30.91
2022-08-22T05:22:46.357Z,31.18
2022-08-22T05:25:25.154Z,31.52
2022-08-22T05:28:08.516Z,31.95
2022-08-22T05:30:41.589Z,32.51
2022-08-22T05:33:21.116Z,33.10
2022-08-22T05:35:58.570Z,33.81
2022-08-22T05:38:35.599Z,34.50
2022-08-22T05:41:11.993Z,35.22
2022-08-22T05:43:46.480Z,35.78
2022-08-22T05:46:26.864Z,36.28
2022-08-22T05:49:02.632Z,36.54
2022-08-22T05:51:47.108Z,36.43
2022-08-22T05:54:34.365Z,36.25
2022-08-22T05:57:18.079Z,36.19
2022-08-22T05:59:55.583Z,36.20
2022-08-22T06:02:40.396Z,36.27
2022-08-22T06:05:13.748Z,36.45
2022-08-22T06:07:50.167Z,36.57
2022-08-22T06:10:27.790Z,37.02
2022-08-22T06:13:11.695Z,37.48
2022-08-22T06:15:49.794Z,37.81
2022-08-22T06:18:26.179Z,38.04
2022-08-22T06:21:03.938Z,38.36
2022-08-22T06:23:41.741Z,38.92
2022-08-22T06:26:20.909Z,39.61
2022-08-22T06:28:59.049Z,40.48
2022-08-22T06:31:39.210Z,41.23
2022-08-22T06:34:15.367Z,41.96
2022-08-22T06:36:50.708Z,42.48
2022-08-22T06:39:23.323Z,42.88
2022-08-22T06:42:01.189Z,43.16
2022-08-22T06:44:37.436Z,43.45
2022-08-22T06:47:16.622Z,43.67
2022-08-22T06:49:49.561Z,44.04
2022-08-22T06:52:24.563Z,44.44
2022-08-22T06:55:03.756Z,44.76
2022-08-22T06:57:38.768Z,44.89
2022-08-22T07:00:16.465Z,44.95
2022-08-22T07:02:52.785Z,44.63
2022-08-22T07:05:28.290Z,44.57
2022-08-22T07:08:06.305Z,44.53
2022-08-22T07:10:41.725Z,44.59
2022-08-22T07:13:17.986Z,44.77
2022-08-22T07:15:56.324Z,44.93
2022-08-22T07:18:31.958Z,44.98
2022-08-22T07:21:08.459Z,44.68
2022-08-22T07:23:48.212Z,43.64
2022-08-22T07:26:34.955Z,41.98
2022-08-22T07:29:18.279Z,40.71
2022-08-22T07:31:56.534Z,39.95
2022-08-22T07:34:44.784Z,38.98
2022-08-22T07:37:28.855Z,38.53
2022-08-22T07:40:09.556Z,38.80
2022-08-22T07:42:50.233Z,39.15
2022-08-22T07:45:34.217Z,39.50
2022-08-22T07:48:26.245Z,39.80
2022-08-22T07:51:06.218Z,39.89
2022-08-22T07:53:43.417Z,39.93
2022-08-22T07:56:21.999Z,39.66
2022-08-22T07:59:12.941Z,39.53
2022-08-22T08:01:50.370Z,39.11
2022-08-22T08:04:26.610Z,39.05
2022-08-22T08:07:01.770Z,39.32
2022-08-22T08:09:38.667Z,39.30
2022-08-22T08:12:14.129Z,39.76
2022-08-22T08:14:51.120Z,39.86
2022-08-22T08:17:31.879Z,40.18
2022-08-22T08:20:09.881Z,40.49
2022-08-22T08:22:45.061Z,40.19
2022-08-22T08:25:21.092Z,40.62
2022-08-22T08:28:19.888Z,40.62
2022-08-22T08:31:00.847Z,40.63
2022-08-22T08:33:36.279Z,41.07
2022-08-22T08:36:16.631Z,41.27
2022-08-22T08:38:54.642Z,40.65
2022-08-22T08:41:43.927Z,40.11
2022-08-22T08:44:29.392Z,39.17
2022-08-22T08:47:22.928Z,38.75
2022-08-22T08:50:18.744Z,38.15
2022-08-22T08:53:26.640Z,37.55
2022-08-22T08:56:05.256Z,37.40
2022-08-22T08:58:48.813Z,37.56
2022-08-22T09:02:00.307Z,37.77
2022-08-22T09:05:03.207Z,38.14
2022-08-22T09:07:57.200Z,37.82
2022-08-22T09:10:57.298Z,37.38
2022-08-22T09:13:48.981Z,37.14
2022-08-22T09:16:51.794Z,37.31
2022-08-22T09:19:47.735Z,37.31
2022-08-22T09:22:59.110Z,37.57
2022-08-22T09:25:38.699Z,37.38
2022-08-22T09:28:19.933Z,36.35
2022-08-22T09:31:16.615Z,35.20
2022-08-22T09:34:00.190Z,34.17
2022-08-22T09:36:50.135Z,33.61
2022-08-22T09:39:34.411Z,33.04
2022-08-22T09:42:12.760Z,32.58
2022-08-22T09:44:59.410Z,32.21
2022-08-22T09:47:39.307Z,31.87
2022-08-22T09:50:19.278Z,31.66
2022-08-22T09:53:05.383Z,31.49
2022-08-22T09:55:53.740Z,31.29
2022-08-22T09:58:41.565Z,31.12
2022-08-22T10:01:25.952Z,31.01
2022-08-22T10:04:40.301Z,31.03
2022-08-22T10:07:38.392Z,30.93
2022-08-22T10:10:24.599Z,30.86
2022-08-22T10:13:10.521Z,30.81
2022-08-22T10:15:50.211Z,30.69
2022-08-22T10:18:34.623Z,30.53
2022-08-22T10:21:13.495Z,30.32
2022-08-22T10:23:54.134Z,30.13
2022-08-22T10:26:38.641Z,29.93
2022-08-22T10:29:41.221Z,29.67
2022-08-22T10:32:27.469Z,29.43
2022-08-22T10:35:06.335Z,29.24
2022-08-22T10:37:50.567Z,29.10
2022-08-22T10:40:28.921Z,29.00
2022-08-22T10:43:09.281Z,28.92
2022-08-22T10:45:46.373Z,28.87
2022-08-22T10:48:42.530Z,28.81
2022-08-22T10:51:24.784Z,28.77
2022-08-22T10:54:20.151Z,28.79
2022-08-22T10:57:03.729Z,28.81
2022-08-22T10:59:50.723Z,28.81
2022-08-22T11:02:38.731Z,28.79
2022-08-22T11:05:36.288Z,28.67
2022-08-22T11:08:21.899Z,28.58
2022-08-22T11:11:06.979Z,28.55
2022-08-22T11:13:47.070Z,28.47
2022-08-22T11:16:36.603Z,28.35
2022-08-22T11:19:27.562Z,28.26
2022-08-22T11:22:16.198Z,28.21
2022-08-22T11:25:12.909Z,28.12
2022-08-22T11:28:00.261Z,27.93
2022-08-22T11:30:43.923Z,27.85
2022-08-22T11:33:39.068Z,27.88
2022-08-22T11:36:37.085Z,27.97
2022-08-22T11:39:24.468Z,28.14
2022-08-22T11:42:06.566Z,28.36
2022-08-22T11:44:50.222Z,28.53
2022-08-22T11:47:26.813Z,28.64
2022-08-22T11:50:13.388Z,28.69
2022-08-22T11:53:17.231Z,28.70
2022-08-22T11:56:00.052Z,28.74
2022-08-22T11:58:50.211Z,28.80
2022-08-22T12:01:34.350Z,28.87
2022-08-22T12:04:18.724Z,28.93
2022-08-22T12:06:59.427Z,29.02
2022-08-22T12:09:44.506Z,29.12
2022-08-22T12:12:42.201Z,29.20
2022-08-22T12:15:24.421Z,29.28
2022-08-22T12:18:25.406Z,29.38
2022-08-22T12:21:24.758Z,29.46
2022-08-22T12:24:20.759Z,29.53
2022-08-22T12:27:09.161Z,29.58
2022-08-22T12:29:46.135Z,29.62
2022-08-22T12:32:50.312Z,29.64
2022-08-22T12:35:40.319Z,29.65
2022-08-22T12:38:30.701Z,29.63
2022-08-22T12:41:38.552Z,29.59
2022-08-22T12:44:33.795Z,29.53
2022-08-22T12:47:21.915Z,29.47
2022-08-22T12:50:16.578Z,29.39
2022-08-22T12:53:18.238Z,29.30
2022-08-22T12:56:04.054Z,29.22
2022-08-22T12:58:52.344Z,29.17
2022-08-22T13:01:34.120Z,29.17
2022-08-22T13:04:13.319Z,29.15
2022-08-22T13:07:22.875Z,29.12
2022-08-22T13:10:00.898Z,29.13
2022-08-22T13:12:44.037Z,29.17
2022-08-22T13:15:29.378Z,29.23
2022-08-22T13:18:19.183Z,29.25
2022-08-22T13:20:59.503Z,29.28
2022-08-22T13:23:39.885Z,29.32
2022-08-22T13:26:31.628Z,29.36
2022-08-22T13:29:25.824Z,29.39
2022-08-22T13:32:01.926Z,29.41
2022-08-22T13:34:45.811Z,29.47
2022-08-22T13:37:24.606Z,29.51
2022-08-22T13:40:03.218Z,29.55
2022-08-22T13:42:47.804Z,29.62
2022-08-22T13:45:26.605Z,29.71
2022-08-22T13:48:03.695Z,29.80
2022-08-22T13:50:53.506Z,29.88
2022-08-22T13:53:35.655Z,29.97
2022-08-22T13:56:15.992Z,30.04
2022-08-22T13:58:52.536Z,30.14
2022-08-22T14:01:39.106Z,30.22
2022-08-22T14:04:35.590Z,30.32
2022-08-22T14:07:31.703Z,30.35
2022-08-22T14:10:14.871Z,30.37
2022-08-22T14:13:22.720Z,30.44
2022-08-22T14:16:02.621Z,30.52
2022-08-22T14:18:45.506Z,30.55
2022-08-22T14:21:40.618Z,30.57
2022-08-22T14:24:28.456Z,30.56
2022-08-22T14:27:06.469Z,30.54
2022-08-22T14:29:50.220Z,30.53
2022-08-22T14:32:48.198Z,30.56
2022-08-22T14:35:34.681Z,30.57
2022-08-22T14:38:27.283Z,30.57
2022-08-22T14:41:06.309Z,30.40
2022-08-22T14:43:51.241Z,30.21
2022-08-22T14:46:28.167Z,30.03
2022-08-22T14:49:28.882Z,29.86
2022-08-22T14:52:06.812Z,29.65
2022-08-22T14:54:42.587Z,29.47
2022-08-22T14:57:20.195Z,29.27
2022-08-22T14:59:55.080Z,29.08
2022-08-22T15:02:32.739Z,28.93
2022-08-22T15:05:19.224Z,28.81
2022-08-22T15:08:00.393Z,28.67
2022-08-22T15:10:36.565Z,28.55
2022-08-22T15:13:13.230Z,28.46
2022-08-22T15:15:54.195Z,28.38
2022-08-22T15:18:38.981Z,28.28
2022-08-22T15:21:24.103Z,28.19
2022-08-22T15:24:01.121Z,28.10
2022-08-22T15:26:36.986Z,28.04
2022-08-22T15:29:18.078Z,27.95
2022-08-22T15:31:56.415Z,27.83
2022-08-22T15:34:47.777Z,27.71
2022-08-22T15:37:34.005Z,27.60
2022-08-22T15:40:14.980Z,27.50
2022-08-22T15:42:50.263Z,27.39
2022-08-22T15:45:34.827Z,27.32
2022-08-22T15:48:25.013Z,27.25
2022-08-22T15:51:02.728Z,27.17
2022-08-22T15:53:59.491Z,27.09
2022-08-22T15:56:34.384Z,27.01
2022-08-22T15:59:53.816Z,26.98
2022-08-22T16:02:33.283Z,26.91
2022-08-22T16:05:23.187Z,26.85
2022-08-22T16:08:04.744Z,26.78
2022-08-22T16:10:42.947Z,26.72
2022-08-22T16:13:38.280Z,26.65
2022-08-22T16:16:33.520Z,26.60
2022-08-22T16:19:19.703Z,26.53
2022-08-22T16:22:13.974Z,26.48
2022-08-22T16:25:17.215Z,26.44
2022-08-22T16:27:59.180Z,26.38
2022-08-22T16:30:39.288Z,26.33
2022-08-22T16:33:17.978Z,26.30
2022-08-22T16:36:26.047Z,26.27
2022-08-22T16:39:00.196Z,26.24
2022-08-22T16:41:40.455Z,26.20
2022-08-22T16:44:44.780Z,26.17
2022-08-22T16:47:19.977Z,26.13
2022-08-22T16:50:09.865Z,26.11
2022-08-22T16:53:07.120Z,26.07
2022-08-22T16:56:00.670Z,26.01
2022-08-22T16:59:01.068Z,25.95
2022-08-22T17:02:02.217Z,25.89
2022-08-22T17:04:42.179Z,25.84
2022-08-22T17:07:34.574Z,25.80
2022-08-22T17:10:21.313Z,25.76
2022-08-22T17:13:17.128Z,25.71
2022-08-22T17:16:02.755Z,25.67
2022-08-22T17:18:52.790Z,25.62
2022-08-22T17:21:30.838Z,25.58
2022-08-22T17:24:32.012Z,25.53
2022-08-22T17:27:19.881Z,25.48
2022-08-22T17:30:07.147Z,25.44
2022-08-22T17:32:59.917Z,25.38
2022-08-22T17:35:55.258Z,25.34
2022-08-22T17:38:43.949Z,25.29
2022-08-22T17:41:30.457Z,25.24
2022-08-22T17:44:12.537Z,25.19
2022-08-22T17:46:49.832Z,25.12
2022-08-22T17:49:36.805Z,25.04
2022-08-22T17:52:16.018Z,24.97
2022-08-22T17:54:53.675Z,24.92
2022-08-22T17:57:31.753Z,24.87
2022-08-22T18:00:09.783Z,24.84
2022-08-22T18:02:47.820Z,24.80
2022-08-22T18:05:25.414Z,24.77
2022-08-22T18:08:05.939Z,24.74
2022-08-22T18:10:47.379Z,24.70
2022-08-22T18:13:37.676Z,24.67
2022-08-22T18:16:20.100Z,24.63
2022-08-22T18:19:03.208Z,24.58
2022-08-22T18:21:42.234Z,24.55
2022-08-22T18:24:23.822Z,24.52
2022-08-22T18:27:01.913Z,24.49
2022-08-22T18:29:44.919Z,24.46
2022-08-22T18:32:26.886Z,24.41
2022-08-22T18:35:07.844Z,24.36
2022-08-22T18:37:50.906Z,24.34
2022-08-22T18:40:32.529Z,24.33
2022-08-22T18:43:15.588Z,24.32
2022-08-22T18:46:03.862Z,24.31
2022-08-22T18:49:05.444Z,24.29
2022-08-22T18:51:38.822Z,24.27
2022-08-22T18:54:37.280Z,24.25
2022-08-22T18:57:30.553Z,24.22
2022-08-22T19:00:12.761Z,24.19
2022-08-22T19:03:10.839Z,24.18
2022-08-22T19:06:20.418Z,24.16
2022-08-22T19:09:05.480Z,24.11
2022-08-22T19:11:54.362Z,24.06
2022-08-22T19:14:48.869Z,24.03
2022-08-22T19:17:36.988Z,23.99
2022-08-22T19:20:38.956Z,23.97
2022-08-22T19:23:49.410Z,23.96
2022-08-22T19:26:44.145Z,23.94
2022-08-22T19:29:51.025Z,23.92
2022-08-22T19:32:55.550Z,23.88
2022-08-22T19:35:31.922Z,23.86
2022-08-22T19:38:07.309Z,23.85
2022-08-22T19:40:59.145Z,23.85
2022-08-22T19:43:36.864Z,23.86
2022-08-22T19:46:12.878Z,23.85
2022-08-22T19:48:48.845Z,23.85
2022-08-22T19:51:31.228Z,23.85
2022-08-22T19:54:21.776Z,23.84
2022-08-22T19:57:13.709Z,23.83
2022-08-22T20:00:00.418Z,23.80
2022-08-22T20:02:37.662Z,23.77
2022-08-22T20:05:21.515Z,23.73
2022-08-22T20:08:11.219Z,23.70
2022-08-22T20:10:56.928Z,23.67
2022-08-22T20:13:31.718Z,23.64
2022-08-22T20:16:13.593Z,23.59
2022-08-22T20:19:16.355Z,23.56
2022-08-22T20:21:55.039Z,23.50
2022-08-22T20:24:40.084Z,23.45
2022-08-22T20:27:18.427Z,23.40
2022-08-22T20:30:03.003Z,23.35
2022-08-22T20:32:40.637Z,23.32
2022-08-22T20:35:18.511Z,23.30
2022-08-22T20:38:06.689Z,23.30
2022-08-22T20:40:55.004Z,23.28
2022-08-22T20:43:35.383Z,23.25
2022-08-22T20:46:23.989Z,23.23
2022-08-22T20:48:57.665Z,23.21
2022-08-22T20:51:32.359Z,23.19
2022-08-22T20:54:10.472Z,23.15
2022-08-22T20:56:53.604Z,23.14
2022-08-22T20:59:36.006Z,23.12
2022-08-22T21:02:13.756Z,23.09
2022-08-22T21:04:52.980Z,23.06
2022-08-22T21:07:28.669Z,23.02
2022-08-22T21:10:23.137Z,22.99
2022-08-22T21:13:11.444Z,22.98
2022-08-22T21:15:46.291Z,22.97
2022-08-22T21:18:29.968Z,22.94
2022-08-22T21:21:17.850Z,22.88
2022-08-22T21:23:54.006Z,22.82
2022-08-22T21:26:30.517Z,22.77
2022-08-22T21:29:06.523Z,22.72
2022-08-22T21:31:45.951Z,22.69
2022-08-22T21:34:22.012Z,22.67
2022-08-22T21:36:57.933Z,22.63
2022-08-22T21:39:33.900Z,22.59
2022-08-22T21:42:17.842Z,22.56
2022-08-22T21:44:58.850Z,22.55
2022-08-22T21:47:34.669Z,22.55
2022-08-22T21:50:18.713Z,22.52
2022-08-22T21:53:10.095Z,22.55
2022-08-22T21:55:47.002Z,22.57
2022-08-22T21:58:35.892Z,22.56
2022-08-22T22:01:30.713Z,22.57
2022-08-22T22:04:03.616Z,22.56
2022-08-22T22:06:35.757Z,22.56
2022-08-22T22:09:09.989Z,22.55
2022-08-22T22:11:45.282Z,22.52
2022-08-22T22:14:17.559Z,22.49
2022-08-22T22:16:49.572Z,22.45
2022-08-22T22:19:21.621Z,22.39
2022-08-22T22:21:54.716Z,22.37
2022-08-22T22:24:26.973Z,22.34
2022-08-22T22:26:59.480Z,22.32
2022-08-22T22:29:31.501Z,22.30
2022-08-22T22:32:03.745Z,22.29
2022-08-22T22:34:37.134Z,22.28
2022-08-22T22:37:11.959Z,22.27
2022-08-22T22:39:44.709Z,22.23
2022-08-22T22:42:16.954Z,22.22
2022-08-22T22:44:49.067Z,22.21
2022-08-22T22:47:26.653Z,22.20
2022-08-22T22:49:59.012Z,22.19
2022-08-22T22:52:31.245Z,22.16
2022-08-22T22:55:03.305Z,22.15
2022-08-22T22:57:41.354Z,22.11
2022-08-22T23:00:17.335Z,22.08
2022-08-22T23:02:49.500Z,22.02
2022-08-22T23:05:21.710Z,21.98
2022-08-22T23:07:53.744Z,21.96
2022-08-22T23:10:26.309Z,21.94
2022-08-22T23:12:58.417Z,21.89
2022-08-22T23:15:30.593Z,21.86
2022-08-22T23:18:03.054Z,21.81
2022-08-22T23:20:35.211Z,21.76
2022-08-22T23:23:07.328Z,21.72
2022-08-22T23:25:39.407Z,21.66
2022-08-22T23:28:11.640Z,21.63
2022-08-22T23:30:44.193Z,21.59
2022-08-22T23:33:16.921Z,21.58
2022-08-22T23:35:49.006Z,21.59
2022-08-22T23:38:21.013Z,21.59
2022-08-22T23:40:54.116Z,21.59
2022-08-22T23:43:26.210Z,21.56
2022-08-22T23:45:58.234Z,21.51
2022-08-22T23:48:30.506Z,21.48
2022-08-22T23:51:02.522Z,21.43
2022-08-22T23:53:35.026Z,21.37
2022-08-22T23:56:19.450Z,21.34
2022-08-22T23:58:53.346Z,21.34
